PASK

Details ICAO PASK (WLK)
Name SELAWIK
Region USA (Alaska)
Timezone America/Anchorage (UTC-9.0)
Plans Departing 1
Arriving 3
Stats Elevation 13 ft / 4 m (AMSL)
Location 66.600159° -159.985875°
Runways 2
Magnetic Variation 12.749° E
Sunrise 2017-12-10 21:14:16 UTC / 2017-12-10 12:14:16 Local
Sunset 2017-12-10 23:54:33 UTC / 2017-12-10 14:54:33 Local
Advertisement - Login to hide

Runways

ID Width Length Bearing (true) Bearing (mag) Surface Threshold Offset Overrun Length
03 59 ft / 18 m 2,992 ft / 912 m 53.27° 40.52° Gravel 0 ft / 0 m 0 ft / 0 m
09 59 ft / 18 m 2,650 ft / 808 m 106.30° 93.55° Gravel 0 ft / 0 m 0 ft / 0 m
21 59 ft / 18 m 2,992 ft / 912 m 233.28° 220.53° Gravel 0 ft / 0 m 0 ft / 0 m
27 59 ft / 18 m 2,650 ft / 808 m 286.32° 273.57° Gravel 0 ft / 0 m 0 ft / 0 m

Map

Weather


0- 5 10 15 20 25 30 35+ Temperature / ° C

Clouds and Precipitation
Forecast for 2017-12-11 12:00 UTC. Updated 32 minutes ago

Ground ~20,000 ft ~40,000 ft Winds

METAR

PASK 110656Z AUTO 06011KT 10SM OVC014 M07/M09 A2957 RMK AO2 SLP010 T10721089 FZRANO $

TAF

Not found

Frequencies

Recorded 135.65 MHz AWOS 3
Unicom 122.70 MHz CTAF
Warning: Do not use this data for real-world aviation or navigation. No guarantee of current accuracy is given.